createdAt,value
2018-03-18T10:26:02.638Z,12.60
2018-03-18T10:27:07.707Z,12.60
2018-03-18T10:28:12.807Z,12.60
2018-03-18T10:29:19.657Z,12.70
2018-03-18T10:30:25.540Z,12.70
2018-03-18T10:31:30.644Z,12.70
2018-03-18T10:32:35.761Z,12.70
2018-03-18T10:33:41.153Z,12.70
2018-03-18T10:34:46.191Z,12.70
2018-03-18T10:35:52.365Z,12.70
2018-03-18T10:36:57.685Z,12.80
2018-03-18T10:38:02.638Z,12.80
2018-03-18T10:39:07.562Z,9.80
2018-03-18T10:40:12.696Z,12.80
2018-03-18T10:41:17.579Z,12.80
2018-03-18T10:42:22.561Z,12.80
2018-03-18T10:43:27.547Z,12.80
2018-03-18T10:44:32.829Z,12.80
2018-03-18T10:45:38.848Z,12.80
2018-03-18T10:46:44.671Z,12.80
2018-03-18T10:47:49.936Z,12.80
2018-03-18T10:48:55.728Z,12.80
2018-03-18T10:50:01.344Z,12.80
2018-03-18T10:51:07.026Z,12.80
2018-03-18T10:52:12.048Z,12.80
2018-03-18T10:53:17.063Z,12.80
2018-03-18T10:54:22.284Z,12.80
2018-03-18T10:55:27.360Z,12.80
2018-03-18T10:56:32.253Z,12.80
2018-03-18T10:57:38.116Z,12.80
2018-03-18T10:58:43.167Z,12.80
2018-03-18T10:59:48.229Z,12.80
2018-03-18T11:00:53.844Z,12.80
2018-03-18T11:02:03.137Z,12.80
2018-03-18T11:03:08.251Z,12.70
2018-03-18T11:04:17.738Z,12.80
2018-03-18T11:05:22.753Z,12.80
2018-03-18T11:06:27.678Z,12.80
2018-03-18T11:07:32.670Z,12.80
2018-03-18T11:08:38.389Z,12.80
2018-03-18T11:09:43.577Z,12.80
2018-03-18T11:10:48.542Z,12.80
2018-03-18T11:11:53.560Z,12.80
2018-03-18T11:12:58.489Z,12.80
2018-03-18T11:14:03.613Z,12.80
2018-03-18T11:15:08.729Z,12.80
2018-03-18T11:16:13.706Z,12.80
2018-03-18T11:17:18.632Z,12.80
2018-03-18T11:18:24.501Z,12.80
2018-03-18T11:19:29.479Z,12.90
2018-03-18T11:20:34.457Z,13.90
2018-03-18T11:21:39.364Z,12.90
2018-03-18T11:22:44.596Z,12.90
2018-03-18T11:23:50.508Z,14.50
2018-03-18T11:24:55.494Z,12.90
2018-03-18T11:26:00.384Z,13.00
2018-03-18T11:27:12.960Z,13.00
2018-03-18T11:28:18.787Z,13.00
2018-03-18T11:29:24.117Z,13.00
2018-03-18T11:30:29.473Z,13.00
2018-03-18T11:31:34.545Z,13.10
2018-03-18T11:32:40.359Z,13.10
2018-03-18T11:33:45.967Z,13.10
2018-03-18T11:34:51.045Z,13.10
2018-03-18T11:35:56.620Z,13.20
2018-03-18T11:37:01.542Z,13.20
2018-03-18T11:38:06.553Z,13.20
2018-03-18T11:39:12.211Z,13.30
2018-03-18T11:40:18.400Z,13.20
2018-03-18T11:41:23.373Z,14.70
2018-03-18T11:42:28.577Z,13.30
2018-03-18T11:43:33.684Z,13.70
2018-03-18T11:44:39.028Z,13.40
2018-03-18T11:45:45.949Z,13.40
2018-03-18T11:46:50.877Z,13.40
2018-03-18T11:47:56.169Z,13.40
2018-03-18T11:49:03.146Z,13.50
2018-03-18T11:50:10.284Z,13.50
2018-03-18T11:51:17.708Z,13.50
2018-03-18T11:52:23.428Z,13.50
2018-03-18T11:53:32.877Z,13.50
2018-03-18T11:54:37.892Z,13.50
2018-03-18T11:55:42.897Z,13.50
2018-03-18T11:56:49.036Z,13.60
2018-03-18T11:57:54.078Z,13.50
2018-03-18T11:58:59.795Z,13.60
2018-03-18T12:00:04.792Z,13.60
2018-03-18T12:01:09.859Z,13.70
2018-03-18T12:02:16.502Z,13.70
2018-03-18T12:03:22.243Z,13.70
2018-03-18T12:04:27.534Z,13.60
2018-03-18T12:05:32.459Z,13.70
2018-03-18T12:06:37.748Z,13.70
2018-03-18T12:07:43.627Z,13.80
2018-03-18T12:09:05.640Z,13.80
2018-03-18T12:10:10.749Z,13.80
2018-03-18T12:11:15.812Z,13.80
2018-03-18T12:12:20.752Z,13.90
2018-03-18T12:13:25.803Z,13.90
2018-03-18T12:14:31.644Z,12.70
2018-03-18T12:15:37.422Z,13.90
2018-03-18T12:16:42.514Z,13.90
2018-03-18T12:17:48.252Z,14.00
2018-03-18T12:18:53.937Z,14.00
2018-03-18T12:19:59.454Z,13.90
2018-03-18T12:21:05.429Z,14.00
2018-03-18T12:22:10.547Z,14.00
2018-03-18T12:23:15.787Z,14.00
2018-03-18T12:24:20.669Z,14.00
2018-03-18T12:25:25.723Z,14.10
2018-03-18T12:26:32.397Z,14.10
2018-03-18T12:27:37.277Z,14.00
2018-03-18T12:28:42.973Z,14.00
2018-03-18T12:29:48.033Z,14.00
2018-03-18T12:30:54.212Z,14.10
2018-03-18T12:31:59.727Z,14.10
2018-03-18T12:33:07.439Z,14.10
2018-03-18T12:34:13.551Z,14.10
2018-03-18T12:35:19.689Z,14.10
2018-03-18T12:36:25.832Z,14.10
2018-03-18T12:37:32.245Z,14.10
2018-03-18T12:38:40.109Z,14.10
2018-03-18T12:39:55.052Z,14.20
2018-03-18T12:41:04.430Z,14.20
2018-03-18T12:42:11.260Z,14.20
2018-03-18T12:43:27.986Z,14.20
2018-03-18T12:44:35.002Z,14.20
2018-03-18T12:45:44.009Z,14.20
2018-03-18T12:46:50.242Z,14.20
2018-03-18T12:47:58.043Z,14.20
2018-03-18T12:49:04.754Z,14.30
2018-03-18T12:50:14.195Z,14.30
2018-03-18T12:51:22.540Z,14.30
2018-03-18T12:52:31.489Z,14.30
2018-03-18T12:53:37.667Z,14.30
2018-03-18T12:54:44.906Z,14.30
2018-03-18T12:55:52.317Z,14.40
2018-03-18T12:57:02.926Z,14.30
2018-03-18T12:58:12.581Z,14.30
2018-03-18T12:59:20.028Z,14.40
2018-03-18T13:00:27.063Z,14.30
2018-03-18T13:01:33.816Z,14.40
2018-03-18T13:02:46.524Z,14.40
2018-03-18T13:03:52.866Z,14.40
2018-03-18T13:04:59.639Z,14.40
2018-03-18T13:06:08.378Z,14.50
2018-03-18T13:07:14.048Z,15.20
2018-03-18T13:08:19.121Z,14.50
2018-03-18T13:09:24.082Z,14.40
2018-03-18T13:10:31.898Z,14.50
2018-03-18T13:11:38.636Z,14.50
2018-03-18T13:12:44.757Z,14.10
2018-03-18T13:13:54.538Z,14.50
2018-03-18T13:15:00.325Z,14.50
2018-03-18T13:16:05.105Z,14.50
2018-03-18T13:17:11.202Z,14.60
2018-03-18T13:18:16.226Z,14.60
2018-03-18T13:19:21.394Z,14.60
2018-03-18T13:20:26.636Z,14.60
2018-03-18T13:21:32.944Z,13.20
2018-03-18T13:22:40.800Z,14.60
2018-03-18T13:23:45.797Z,16.40
2018-03-18T13:24:51.754Z,14.60
2018-03-18T13:25:57.568Z,14.60
2018-03-18T13:27:02.713Z,14.70
2018-03-18T13:28:07.700Z,14.70
2018-03-18T13:29:12.704Z,14.70
2018-03-18T13:30:17.841Z,14.70
2018-03-18T13:31:22.703Z,14.90
2018-03-18T13:32:28.923Z,14.70
2018-03-18T13:33:33.889Z,14.70
2018-03-18T13:34:40.138Z,14.70
2018-03-18T13:35:44.938Z,14.70
2018-03-18T13:36:49.954Z,14.70
2018-03-18T13:37:55.734Z,14.70
2018-03-18T13:39:01.762Z,14.70
2018-03-18T13:40:09.996Z,14.40
2018-03-18T13:41:16.027Z,14.70
2018-03-18T13:42:21.218Z,14.70
2018-03-18T13:43:30.686Z,14.70
2018-03-18T13:44:35.874Z,14.70
2018-03-18T13:45:40.741Z,14.70
2018-03-18T13:46:45.671Z,14.70
2018-03-18T13:47:50.694Z,14.70
2018-03-18T13:48:57.334Z,14.70
2018-03-18T13:50:03.470Z,14.70
2018-03-18T13:51:09.953Z,14.70
2018-03-18T13:52:16.987Z,14.70
2018-03-18T13:53:23.916Z,14.70
2018-03-18T13:54:31.802Z,14.70
2018-03-18T13:55:37.970Z,14.70
2018-03-18T13:56:46.961Z,14.70
2018-03-18T13:57:54.637Z,14.70
2018-03-18T13:59:00.550Z,14.70
2018-03-18T14:00:08.127Z,14.80
2018-03-18T14:01:15.339Z,14.70
2018-03-18T14:02:21.324Z,14.80
2018-03-18T14:03:28.428Z,14.80
2018-03-18T14:04:34.396Z,14.80
2018-03-18T14:05:41.044Z,14.80
2018-03-18T14:06:48.879Z,14.80
2018-03-18T14:07:55.088Z,14.80
2018-03-18T14:09:18.158Z,14.80
2018-03-18T14:10:31.165Z,14.80
2018-03-18T14:11:44.513Z,14.80
2018-03-18T14:12:54.126Z,14.80
2018-03-18T14:14:02.008Z,14.80
2018-03-18T14:15:09.573Z,14.80
2018-03-18T14:16:19.627Z,14.80
2018-03-18T14:17:26.772Z,14.80
2018-03-18T14:18:35.963Z,14.80
2018-03-18T14:19:45.837Z,14.80
2018-03-18T14:20:54.582Z,14.80
2018-03-18T14:22:05.133Z,14.80
2018-03-18T14:23:16.502Z,14.80
2018-03-18T14:24:22.320Z,14.80
2018-03-18T14:25:33.554Z,14.80
2018-03-18T14:26:42.113Z,14.80
2018-03-18T14:27:50.708Z,14.80
2018-03-18T14:28:58.877Z,14.80
2018-03-18T14:30:07.654Z,14.80
2018-03-18T14:31:15.488Z,14.80
2018-03-18T14:32:23.490Z,14.80
2018-03-18T14:33:32.458Z,14.80
2018-03-18T14:34:43.306Z,14.80
2018-03-18T14:35:52.848Z,14.80
2018-03-18T14:36:58.983Z,14.80
2018-03-18T14:38:06.146Z,14.70
2018-03-18T14:39:14.232Z,14.80
2018-03-18T14:40:21.347Z,14.80
2018-03-18T14:41:28.071Z,14.80
2018-03-18T14:42:35.599Z,14.70
2018-03-18T14:43:43.030Z,14.70
2018-03-18T14:44:49.892Z,14.70
2018-03-18T14:45:57.685Z,14.70
2018-03-18T14:47:05.080Z,14.70
2018-03-18T14:48:11.987Z,14.70
2018-03-18T14:49:19.209Z,14.70
2018-03-18T14:50:26.176Z,14.70
2018-03-18T14:51:33.781Z,14.70
2018-03-18T14:52:38.976Z,14.80
2018-03-18T14:53:45.318Z,14.80
2018-03-18T14:54:53.014Z,14.70
2018-03-18T14:56:00.708Z,14.70
2018-03-18T14:57:06.716Z,14.80
2018-03-18T14:58:12.832Z,14.70
2018-03-18T14:59:19.450Z,14.70
2018-03-18T15:00:26.829Z,14.80
2018-03-18T15:01:39.078Z,14.70
2018-03-18T15:02:45.514Z,14.80
2018-03-18T15:03:52.706Z,14.80
2018-03-18T15:04:59.783Z,14.70
2018-03-18T15:06:08.146Z,14.80
2018-03-18T15:07:17.205Z,14.80
2018-03-18T15:08:24.202Z,14.80
2018-03-18T15:09:30.724Z,14.80
2018-03-18T15:10:37.267Z,14.80
2018-03-18T15:11:42.791Z,14.80
2018-03-18T15:12:47.854Z,14.80
2018-03-18T15:13:53.346Z,14.80
2018-03-18T15:14:59.301Z,14.80
2018-03-18T15:16:04.496Z,14.80
2018-03-18T15:17:11.185Z,14.70
2018-03-18T15:18:16.431Z,14.80
2018-03-18T15:19:22.148Z,14.80
2018-03-18T15:20:28.266Z,14.80
2018-03-18T15:21:34.586Z,14.80
2018-03-18T15:22:39.630Z,14.80
2018-03-18T15:23:44.689Z,14.80
2018-03-18T15:24:51.353Z,14.80
2018-03-18T15:25:56.248Z,14.80
2018-03-18T15:27:01.417Z,14.80
2018-03-18T15:28:07.132Z,14.80
2018-03-18T15:29:13.152Z,14.80
2018-03-18T15:30:18.209Z,13.30
2018-03-18T15:31:24.391Z,14.80
2018-03-18T15:32:33.086Z,13.20
2018-03-18T15:33:40.320Z,14.80
2018-03-18T15:34:46.927Z,14.80
2018-03-18T15:35:54.414Z,12.70
2018-03-18T15:37:01.087Z,14.90
2018-03-18T15:38:07.550Z,14.80
2018-03-18T15:39:14.266Z,14.90
2018-03-18T15:40:21.932Z,14.80
2018-03-18T15:41:28.388Z,14.80
2018-03-18T15:42:33.748Z,14.80
2018-03-18T15:43:41.008Z,14.80
2018-03-18T15:44:46.082Z,14.80
2018-03-18T15:45:55.244Z,14.80
2018-03-18T15:47:00.672Z,14.80
2018-03-18T15:48:06.258Z,14.80
2018-03-18T15:49:11.982Z,14.80
2018-03-18T15:50:19.153Z,14.80
2018-03-18T15:51:26.485Z,13.40
2018-03-18T15:52:31.645Z,14.80
2018-03-18T15:53:37.470Z,14.80
2018-03-18T15:54:43.280Z,14.80
2018-03-18T15:55:49.870Z,14.80
2018-03-18T15:56:55.577Z,14.80
2018-03-18T15:58:02.374Z,14.80
2018-03-18T15:59:07.999Z,14.80
2018-03-18T16:00:13.101Z,14.80
2018-03-18T16:01:18.262Z,14.80
2018-03-18T16:02:24.217Z,14.80
2018-03-18T16:03:30.992Z,14.80
2018-03-18T16:04:36.073Z,14.80
2018-03-18T16:05:41.988Z,14.80
2018-03-18T16:06:46.968Z,14.80
2018-03-18T16:07:52.649Z,14.70
2018-03-18T16:09:00.242Z,14.80
2018-03-18T16:10:08.655Z,14.80
2018-03-18T16:11:16.647Z,14.80
2018-03-18T16:12:22.698Z,14.80
2018-03-18T16:13:29.106Z,14.80
2018-03-18T16:14:34.013Z,14.80
2018-03-18T16:15:39.861Z,16.40
2018-03-18T16:16:45.380Z,14.70
2018-03-18T16:17:50.984Z,14.70
2018-03-18T16:18:56.196Z,14.70
2018-03-18T16:20:01.250Z,14.70
2018-03-18T16:21:07.039Z,14.70
2018-03-18T16:22:12.504Z,14.70
2018-03-18T16:23:18.131Z,14.70
2018-03-18T16:24:23.063Z,14.60
2018-03-18T16:25:29.424Z,14.70
2018-03-18T16:26:35.689Z,14.70
2018-03-18T16:27:41.690Z,14.70
2018-03-18T16:28:46.925Z,14.70
2018-03-18T16:32:00.738Z,14.70
2018-03-18T16:33:06.029Z,14.60
2018-03-18T16:34:11.790Z,14.70
2018-03-18T16:35:16.774Z,14.70
2018-03-18T16:36:21.929Z,14.70
2018-03-18T16:37:27.920Z,14.60
2018-03-18T16:38:32.951Z,14.70
2018-03-18T16:39:38.137Z,14.70
2018-03-18T16:40:43.336Z,14.70
2018-03-18T16:41:50.386Z,14.60
2018-03-18T16:42:56.451Z,14.60
2018-03-18T16:44:05.792Z,12.10
2018-03-18T16:45:11.841Z,14.60
2018-03-18T16:46:17.001Z,16.20
2018-03-18T16:47:22.339Z,14.60
2018-03-18T16:48:29.137Z,14.50
2018-03-18T16:49:34.249Z,14.50
2018-03-18T16:50:39.289Z,14.40
2018-03-18T16:51:45.292Z,13.20
2018-03-18T16:52:52.992Z,14.40
2018-03-18T16:53:58.228Z,14.40
2018-03-18T16:55:03.552Z,14.40
2018-03-18T16:56:09.399Z,14.30
2018-03-18T16:57:15.317Z,14.30
2018-03-18T16:58:20.355Z,14.30
2018-03-18T16:59:25.244Z,14.30
2018-03-18T17:00:31.316Z,14.20
2018-03-18T17:01:36.246Z,14.20
2018-03-18T17:02:41.266Z,14.20
2018-03-18T17:03:46.209Z,14.20
2018-03-18T17:04:52.964Z,14.20
2018-03-18T17:05:57.898Z,14.20
2018-03-18T17:07:03.146Z,14.10
2018-03-18T17:08:08.944Z,14.10
2018-03-18T17:09:13.910Z,14.10
2018-03-18T17:10:19.937Z,14.00
2018-03-18T17:11:24.855Z,14.00
2018-03-18T17:12:29.964Z,14.00
2018-03-18T17:13:34.827Z,14.00
2018-03-18T17:14:39.765Z,14.00
2018-03-18T17:15:45.412Z,13.90
2018-03-18T17:16:51.849Z,14.00
2018-03-18T17:18:10.247Z,13.90
2018-03-18T17:19:15.211Z,13.80
2018-03-18T17:20:20.319Z,13.80
2018-03-18T17:21:25.153Z,14.90
2018-03-18T17:22:30.275Z,13.80
2018-03-18T17:23:35.569Z,13.80
2018-03-18T17:24:40.518Z,13.80
2018-03-18T17:25:45.357Z,13.70
2018-03-18T17:26:50.980Z,13.80
2018-03-18T17:28:05.701Z,13.70
2018-03-18T17:29:11.527Z,13.70
2018-03-18T17:30:17.710Z,13.70
2018-03-18T17:31:27.981Z,13.70
2018-03-18T17:32:34.105Z,13.70
2018-03-18T17:33:42.532Z,13.60
2018-03-18T17:34:49.801Z,13.60
2018-03-18T17:35:55.386Z,13.60
2018-03-18T17:37:00.872Z,13.60
2018-03-18T17:38:07.646Z,13.60
2018-03-18T17:39:15.712Z,13.60
2018-03-18T17:40:22.084Z,13.50
2018-03-18T17:41:27.409Z,13.60
2018-03-18T17:42:32.745Z,13.50
2018-03-18T17:43:37.771Z,13.50
2018-03-18T17:46:06.010Z,12.70
2018-03-18T17:50:26.662Z,13.50
2018-03-18T17:52:42.500Z,13.40
2018-03-18T17:56:03.319Z,13.50
2018-03-18T17:57:10.686Z,13.50
2018-03-18T17:58:17.281Z,13.50
2018-03-18T17:59:25.044Z,13.50
2018-03-18T18:00:33.259Z,13.50
2018-03-18T18:01:38.757Z,13.50
2018-03-18T18:02:44.160Z,13.50
2018-03-18T18:04:07.110Z,13.50
2018-03-18T18:05:41.892Z,13.50
2018-03-18T18:06:49.141Z,13.50
2018-03-18T18:09:08.685Z,13.60
2018-03-18T18:10:14.941Z,13.50
2018-03-18T18:11:20.989Z,13.50
2018-03-18T18:12:28.255Z,13.50
2018-03-18T18:13:37.257Z,13.50
2018-03-18T18:14:45.851Z,13.50
2018-03-18T18:15:52.062Z,13.50
2018-03-18T18:17:02.437Z,13.50
2018-03-18T18:18:13.704Z,13.50
2018-03-18T18:19:18.849Z,15.40
2018-03-18T18:20:32.049Z,13.60
2018-03-18T18:21:45.148Z,13.50
2018-03-18T18:24:28.515Z,13.50
2018-03-18T18:26:07.149Z,13.50
2018-03-18T18:27:16.740Z,13.50
2018-03-18T18:28:26.680Z,13.60
2018-03-18T18:29:33.482Z,13.50
2018-03-18T18:30:43.422Z,12.10
2018-03-18T18:31:57.067Z,13.50
2018-03-18T18:33:05.536Z,13.60
2018-03-18T18:34:11.233Z,13.50
2018-03-18T18:35:18.715Z,13.50
2018-03-18T18:36:25.491Z,13.50
2018-03-18T18:37:32.790Z,13.50
2018-03-18T18:38:39.533Z,13.50
2018-03-18T18:39:46.130Z,13.50
2018-03-18T18:40:53.162Z,14.70
2018-03-18T18:41:58.356Z,13.50
2018-03-18T18:43:04.301Z,13.50
2018-03-18T18:44:12.183Z,13.50
2018-03-18T18:45:19.280Z,13.50
2018-03-18T18:46:25.682Z,13.50
2018-03-18T18:47:31.787Z,13.50
2018-03-18T18:48:38.928Z,13.50
2018-03-18T18:49:49.892Z,13.50
2018-03-18T18:50:57.266Z,13.50
2018-03-18T18:52:04.389Z,13.50
2018-03-18T18:53:27.024Z,13.50
2018-03-18T18:54:37.355Z,13.50
2018-03-18T18:55:45.213Z,13.40
2018-03-18T18:56:55.149Z,13.50
2018-03-18T18:58:04.702Z,13.50
2018-03-18T18:59:14.605Z,13.50
2018-03-18T19:00:19.754Z,13.50
2018-03-18T19:01:27.861Z,13.50
2018-03-18T19:02:34.101Z,13.50
2018-03-18T19:03:42.126Z,13.40
2018-03-18T19:04:49.240Z,13.40
2018-03-18T19:05:56.711Z,13.40
2018-03-18T19:07:04.420Z,13.30
2018-03-18T19:08:11.524Z,13.30
2018-03-18T19:09:19.168Z,13.40
2018-03-18T19:10:29.031Z,13.30
2018-03-18T19:11:36.754Z,13.20
2018-03-18T19:13:00.559Z,13.30
2018-03-18T19:14:07.061Z,13.20
2018-03-18T19:15:42.427Z,13.30
2018-03-18T19:16:53.526Z,13.20
2018-03-18T19:18:38.485Z,13.20
2018-03-18T19:19:49.017Z,13.20
2018-03-18T19:21:06.776Z,13.20
2018-03-18T19:22:23.237Z,13.20
2018-03-18T19:23:32.501Z,13.20
2018-03-18T19:24:51.011Z,13.20
2018-03-18T19:26:03.235Z,13.10
2018-03-18T19:27:16.322Z,13.10
2018-03-18T19:28:24.353Z,13.20
2018-03-18T19:29:32.374Z,13.10
2018-03-18T19:30:38.790Z,13.10
2018-03-18T19:31:53.990Z,13.10
2018-03-18T19:34:27.020Z,13.10
2018-03-18T19:35:34.861Z,13.10
2018-03-18T19:36:43.957Z,13.00
2018-03-18T19:37:57.905Z,13.00
2018-03-18T19:39:11.875Z,13.00
2018-03-18T19:40:21.535Z,13.00
2018-03-18T19:41:31.572Z,13.00
2018-03-18T19:42:40.415Z,13.00
2018-03-18T19:43:45.302Z,13.00
2018-03-18T19:44:53.012Z,13.00
2018-03-18T19:45:58.821Z,13.00
2018-03-18T19:47:04.667Z,13.00
2018-03-18T19:48:09.690Z,12.90
2018-03-18T19:49:16.011Z,13.00
2018-03-18T19:50:21.317Z,12.90
2018-03-18T19:51:26.684Z,12.90
2018-03-18T19:52:32.141Z,12.90
2018-03-18T19:53:38.356Z,13.00
2018-03-18T19:54:43.769Z,12.90
2018-03-18T19:55:48.899Z,12.90
2018-03-18T19:56:54.730Z,12.80
2018-03-18T19:57:59.627Z,12.80
2018-03-18T19:59:04.539Z,12.80
2018-03-18T20:00:09.470Z,12.80
2018-03-18T20:01:15.599Z,12.90
2018-03-18T20:02:21.364Z,12.80
2018-03-18T20:03:26.983Z,12.80
2018-03-18T20:04:32.001Z,12.80
2018-03-18T20:05:37.264Z,11.50
2018-03-18T20:06:42.479Z,12.80
2018-03-18T20:07:48.333Z,12.80
2018-03-18T20:08:55.122Z,12.70
2018-03-18T20:10:04.647Z,12.80
2018-03-18T20:11:10.781Z,12.80
2018-03-18T20:12:17.544Z,12.80
2018-03-18T20:13:24.408Z,12.80
2018-03-18T20:14:31.735Z,12.80
2018-03-18T20:15:36.989Z,12.80
2018-03-18T20:16:42.215Z,12.80
2018-03-18T20:17:47.677Z,12.80
2018-03-18T20:18:55.182Z,12.70
2018-03-18T20:20:00.884Z,12.80
2018-03-18T20:21:08.075Z,12.70
2018-03-18T20:22:14.470Z,12.70
2018-03-18T20:23:23.527Z,12.70
2018-03-18T20:25:34.768Z,12.70
2018-03-18T20:26:42.964Z,12.70
2018-03-18T20:27:49.720Z,12.70
2018-03-18T20:28:56.384Z,12.70
2018-03-18T20:30:01.454Z,12.70
2018-03-18T20:31:07.754Z,12.70
2018-03-18T20:32:15.941Z,12.70
2018-03-18T20:33:28.239Z,12.60
2018-03-18T20:34:34.074Z,12.70
2018-03-18T20:36:05.625Z,15.50
2018-03-18T20:37:10.616Z,12.60
2018-03-18T20:38:16.793Z,12.50
2018-03-18T20:39:23.580Z,12.60
2018-03-18T20:40:29.372Z,12.60
2018-03-18T20:41:36.926Z,12.60
2018-03-18T20:42:42.096Z,12.60
2018-03-18T20:43:48.405Z,12.60
2018-03-18T20:44:54.356Z,12.60
2018-03-18T20:45:59.372Z,12.60
2018-03-18T20:47:04.336Z,12.60
2018-03-18T20:48:10.938Z,12.50
2018-03-18T20:49:16.571Z,12.60
2018-03-18T20:50:21.594Z,12.50
2018-03-18T20:51:26.744Z,12.60
2018-03-18T20:52:31.672Z,12.50
2018-03-18T20:53:36.607Z,15.30
2018-03-18T20:54:41.715Z,12.50
2018-03-18T20:55:46.936Z,12.50
2018-03-18T20:56:52.930Z,12.60
2018-03-18T20:57:59.030Z,12.50
2018-03-18T20:59:04.157Z,12.50
2018-03-18T21:00:13.108Z,12.50
2018-03-18T21:01:21.756Z,12.50
2018-03-18T21:02:28.197Z,12.50
2018-03-18T21:03:35.571Z,12.50
2018-03-18T21:04:41.926Z,12.50
2018-03-18T21:05:47.782Z,12.50
2018-03-18T21:06:53.783Z,12.50
2018-03-18T21:07:59.097Z,12.50
2018-03-18T21:09:05.139Z,12.50
2018-03-18T21:10:10.167Z,12.50
2018-03-18T21:11:15.312Z,12.50
2018-03-18T21:12:20.734Z,12.50
2018-03-18T21:13:25.925Z,12.50
2018-03-18T21:14:33.919Z,12.50
2018-03-18T21:15:39.377Z,12.50
2018-03-18T21:16:45.135Z,12.50
2018-03-18T21:17:51.482Z,12.50
2018-03-18T21:18:56.422Z,12.40
2018-03-18T21:20:03.272Z,14.20
2018-03-18T21:21:10.753Z,12.40
2018-03-18T21:22:15.841Z,12.40
2018-03-18T21:23:21.419Z,12.40
2018-03-18T21:24:27.504Z,12.40
2018-03-18T21:25:33.375Z,12.40
2018-03-18T21:26:39.694Z,12.40
2018-03-18T21:27:47.931Z,12.40
2018-03-18T21:28:53.948Z,12.40
2018-03-18T21:30:05.452Z,12.40
2018-03-18T21:31:10.498Z,12.40
2018-03-18T21:32:18.815Z,12.40
2018-03-18T21:33:23.804Z,12.40
2018-03-18T21:34:41.240Z,12.40
2018-03-18T21:35:54.247Z,12.40
2018-03-18T21:36:59.878Z,12.40
2018-03-18T21:38:13.782Z,12.40
2018-03-18T21:39:19.441Z,12.40
2018-03-18T21:40:25.594Z,12.40
2018-03-18T21:41:30.694Z,12.40
2018-03-18T21:42:36.743Z,12.40
2018-03-18T21:43:42.732Z,12.40
2018-03-18T21:44:48.114Z,12.40
2018-03-18T21:45:57.314Z,12.40
2018-03-18T21:47:03.123Z,12.40
2018-03-18T21:48:09.157Z,12.40
2018-03-18T21:49:19.115Z,12.30
2018-03-18T21:50:29.905Z,12.30
2018-03-18T21:51:36.094Z,12.90
2018-03-18T21:52:41.485Z,12.30
2018-03-18T21:53:46.790Z,12.30
2018-03-18T21:54:52.973Z,12.30
2018-03-18T21:55:59.278Z,12.30
2018-03-18T21:57:05.113Z,12.30
2018-03-18T21:58:10.580Z,12.30
2018-03-18T21:59:16.221Z,12.30
2018-03-18T22:00:22.315Z,12.30
2018-03-18T22:01:28.492Z,12.30
2018-03-18T22:02:34.229Z,12.30
2018-03-18T22:03:40.580Z,12.30
2018-03-18T22:04:46.398Z,12.30
2018-03-18T22:05:54.867Z,12.30
2018-03-18T22:07:02.548Z,12.30
2018-03-18T22:08:10.168Z,12.30
2018-03-18T22:09:17.410Z,12.30
2018-03-18T22:10:22.711Z,12.30
2018-03-18T22:11:30.017Z,12.30
2018-03-18T22:12:36.952Z,12.30
2018-03-18T22:13:43.104Z,12.30
2018-03-18T22:14:51.318Z,12.30
2018-03-18T22:15:56.884Z,12.30
2018-03-18T22:17:02.242Z,12.30
2018-03-18T22:18:08.396Z,12.30
2018-03-18T22:19:16.555Z,12.30
2018-03-18T22:20:22.783Z,12.30
2018-03-18T22:21:28.311Z,12.30
2018-03-18T22:22:33.963Z,12.30
2018-03-18T22:23:39.386Z,12.30
2018-03-18T22:24:47.137Z,12.30
2018-03-18T22:25:55.720Z,12.20
2018-03-18T22:27:02.802Z,12.20
2018-03-18T22:28:09.145Z,12.20
2018-03-18T22:29:16.716Z,12.30
2018-03-18T22:30:23.109Z,12.30
2018-03-18T22:31:29.558Z,12.30
2018-03-18T22:32:35.599Z,12.20
2018-03-18T22:33:42.500Z,12.20
2018-03-18T22:34:47.922Z,12.20
2018-03-18T22:35:54.728Z,12.20
2018-03-18T22:37:00.132Z,12.20
2018-03-18T22:38:05.625Z,12.20
2018-03-18T22:39:10.754Z,12.20
2018-03-18T22:40:16.027Z,12.20
2018-03-18T22:41:22.008Z,12.20
2018-03-18T22:42:27.355Z,12.20
2018-03-18T22:43:32.902Z,12.20
2018-03-18T22:44:38.264Z,12.20
2018-03-18T22:45:44.198Z,12.20
2018-03-18T22:46:50.493Z,12.20
2018-03-18T22:47:56.035Z,12.20
2018-03-18T22:49:01.195Z,12.20
2018-03-18T22:50:08.071Z,12.20
2018-03-18T22:51:13.141Z,12.20
2018-03-18T22:52:18.433Z,12.20
2018-03-18T22:53:24.563Z,12.20
2018-03-18T22:54:29.997Z,12.20
2018-03-18T22:55:36.567Z,12.20
2018-03-18T22:56:43.505Z,10.90
2018-03-18T22:57:49.480Z,12.20
2018-03-18T22:58:56.130Z,12.20
2018-03-18T23:00:01.768Z,12.20
2018-03-18T23:01:08.302Z,12.20
2018-03-18T23:02:16.034Z,12.20
2018-03-18T23:03:22.592Z,12.20
2018-03-18T23:04:28.978Z,12.20
2018-03-18T23:05:36.581Z,12.20
2018-03-18T23:06:42.962Z,12.20
2018-03-18T23:07:48.249Z,12.20
2018-03-18T23:08:54.790Z,12.20
2018-03-18T23:09:59.947Z,12.10
2018-03-18T23:11:06.157Z,12.10
2018-03-18T23:12:12.283Z,12.20
2018-03-18T23:13:17.855Z,12.10
2018-03-18T23:14:24.944Z,12.20
2018-03-18T23:15:31.142Z,12.10
2018-03-18T23:16:36.888Z,12.20
2018-03-18T23:17:42.508Z,12.20
2018-03-18T23:18:48.652Z,12.20
2018-03-18T23:19:54.904Z,12.10
2018-03-18T23:21:01.902Z,12.10
2018-03-18T23:22:07.216Z,12.10
2018-03-18T23:23:12.547Z,12.10
2018-03-18T23:24:17.983Z,12.10
2018-03-18T23:25:24.289Z,12.10
2018-03-18T23:26:29.614Z,12.10
2018-03-18T23:27:35.553Z,12.10
2018-03-18T23:28:41.015Z,12.10
2018-03-18T23:29:46.478Z,12.10
2018-03-18T23:30:52.392Z,12.10
2018-03-18T23:31:58.348Z,12.10
2018-03-18T23:33:04.406Z,12.10
2018-03-18T23:34:09.821Z,12.10
2018-03-18T23:35:15.526Z,12.10
2018-03-18T23:36:20.966Z,12.10
2018-03-18T23:37:27.951Z,12.00
2018-03-18T23:38:35.639Z,12.10
2018-03-18T23:39:41.906Z,12.10
2018-03-18T23:40:50.209Z,12.10
2018-03-18T23:41:56.917Z,12.10
2018-03-18T23:43:02.584Z,12.10
2018-03-18T23:44:08.834Z,12.10
2018-03-18T23:45:15.090Z,12.10
2018-03-18T23:46:21.470Z,12.10
2018-03-18T23:47:26.729Z,12.10
2018-03-18T23:48:32.375Z,12.10
2018-03-18T23:49:37.810Z,12.10
2018-03-18T23:50:43.411Z,12.00
2018-03-18T23:51:48.752Z,12.10
2018-03-18T23:52:56.746Z,12.00
2018-03-18T23:54:03.079Z,12.00
2018-03-18T23:55:08.692Z,12.10
2018-03-18T23:56:14.732Z,12.00
2018-03-18T23:57:20.277Z,12.00
2018-03-18T23:58:26.434Z,12.00
2018-03-18T23:59:32.575Z,12.00
